Time;durP1;ratioP1;P1;durP2;ratioP2;P2;SDS_P1;SDS_P2;PMS_P1;PMS_P2;Temp;Humidity;BMP_temperature;BMP_pressure;BME280_temperature;BME280_humidity;BME280_pressure;Samples;Min_cycle;Max_cycle;Signal;HPM_P1;HPM_P2
2021/07/29 00:00:32;;;;;;;0.00;0.00;;;;;;;;;;5060039;28;20043;-73
2021/07/29 00:03:00;;;;;;;0.00;0.00;;;;;;;;;;5059892;28;20307;-74
2021/07/29 00:05:26;;;;;;;0.00;0.00;;;;;;;;;;5050236;28;20027;-75
2021/07/29 00:07:51;;;;;;;0.00;0.00;;;;;;;;;;5046071;28;20111;-75
2021/07/29 00:10:17;;;;;;;0.00;0.00;;;;;;;;;;5046978;28;20042;-75
2021/07/29 00:12:42;;;;;;;0.00;0.00;;;;;;;;;;5047203;28;20027;-74
2021/07/29 00:15:14;;;;;;;0.00;0.00;;;;;;;;;;5058910;28;20310;-74
2021/07/29 00:20:14;;;;;;;0.00;0.00;;;;;;;;;;5052768;28;20377;-74
2021/07/29 00:22:40;;;;;;;0.00;0.00;;;;;;;;;;5070993;28;20044;-74
2021/07/29 00:25:07;;;;;;;0.00;0.00;;;;;;;;;;5047498;28;20068;-73
2021/07/29 00:27:35;;;;;;;0.00;0.00;;;;;;;;;;5048514;28;20530;-74
2021/07/29 00:30:00;;;;;;;0.00;0.00;;;;;;;;;;5047043;28;20021;-74
2021/07/29 00:32:25;;;;;;;0.00;0.00;;;;;;;;;;5063614;28;20081;-74
2021/07/29 00:34:51;;;;;;;0.00;0.00;;;;;;;;;;5044947;28;20793;-74
2021/07/29 00:37:16;;;;;;;0.00;0.00;;;;;;;;;;5046057;28;20287;-73
2021/07/29 00:39:41;;;;;;;0.00;0.00;;;;;;;;;;5048073;28;20267;-73
2021/07/29 00:42:06;;;;;;;0.00;0.00;;;;;;;;;;5046516;28;20027;-74
2021/07/29 00:44:34;;;;;;;0.00;0.00;;;;;;;;;;5051378;28;20359;-73
2021/07/29 00:46:59;;;;;;;0.00;0.00;;;;;;;;;;5051579;28;20078;-73
2021/07/29 00:49:24;;;;;;;0.00;0.00;;;;;;;;;;5050949;28;20025;-74
2021/07/29 00:51:50;;;;;;;0.00;0.00;;;;;;;;;;5067139;28;20103;-74
2021/07/29 00:54:15;;;;;;;0.00;0.00;;;;;;;;;;5046814;28;20290;-74
2021/07/29 00:56:41;;;;;;;0.00;0.00;;;;;;;;;;5044460;28;20115;-74
2021/07/29 00:59:06;;;;;;;0.00;0.00;;;;;;;;;;5047941;28;20259;-74
2021/07/29 01:01:31;;;;;;;0.00;0.00;;;;;;;;;;5040545;28;20023;-74
2021/07/29 01:03:57;;;;;;;0.00;0.00;;;;;;;;;;5050375;28;20264;-75
2021/07/29 01:06:22;;;;;;;0.00;0.00;;;;;;;;;;5058111;28;20025;-74
2021/07/29 01:09:00;;;;;;;0.00;0.00;;;;;;;;;;5069494;28;20016;-75
2021/07/29 01:11:26;;;;;;;0.00;0.00;;;;;;;;;;5077893;28;20020;-76
2021/07/29 01:13:51;;;;;;;0.00;0.00;;;;;;;;;;5069991;28;20087;-74
2021/07/29 01:16:16;;;;;;;0.00;0.00;;;;;;;;;;5061860;28;20774;-75
2021/07/29 01:18:41;;;;;;;0.00;0.00;;;;;;;;;;5068395;28;20258;-75
2021/07/29 01:21:06;;;;;;;0.00;0.00;;;;;;;;;;5064588;28;20465;-75
2021/07/29 01:23:32;;;;;;;0.00;0.00;;;;;;;;;;5062860;28;20270;-75
2021/07/29 01:25:57;;;;;;;0.00;0.00;;;;;;;;;;5044529;28;20357;-76
2021/07/29 01:28:23;;;;;;;0.00;0.00;;;;;;;;;;5044923;28;20730;-76
2021/07/29 01:30:49;;;;;;;0.00;0.00;;;;;;;;;;5065562;28;20282;-75
2021/07/29 01:33:14;;;;;;;0.00;0.00;;;;;;;;;;5047254;28;20477;-75
2021/07/29 01:35:42;;;;;;;0.00;0.00;;;;;;;;;;5046497;28;20284;-75
2021/07/29 01:38:07;;;;;;;0.00;0.00;;;;;;;;;;5044477;28;20359;-75
2021/07/29 01:40:32;;;;;;;0.00;0.00;;;;;;;;;;5050499;28;20044;-75
2021/07/29 01:42:57;;;;;;;0.00;0.00;;;;;;;;;;5043426;28;20347;-75
2021/07/29 01:45:22;;;;;;;0.00;0.00;;;;;;;;;;5046036;28;20810;-75
2021/07/29 01:47:48;;;;;;;0.00;0.00;;;;;;;;;;5046821;28;20286;-74
2021/07/29 01:50:13;;;;;;;0.00;0.00;;;;;;;;;;5061101;28;20754;-75
2021/07/29 01:52:38;;;;;;;0.00;0.00;;;;;;;;;;5045493;28;20535;-74
2021/07/29 01:55:04;;;;;;;0.00;0.00;;;;;;;;;;5062474;28;20056;-74
2021/07/29 01:57:29;;;;;;;0.00;0.00;;;;;;;;;;5062261;28;20512;-74
2021/07/29 01:59:54;;;;;;;0.00;0.00;;;;;;;;;;5062072;28;20469;-74
2021/07/29 02:02:22;;;;;;;0.00;0.00;;;;;;;;;;5047514;28;20276;-74
2021/07/29 02:04:50;;;;;;;0.00;0.00;;;;;;;;;;5044080;28;20024;-75
2021/07/29 02:07:16;;;;;;;0.00;0.00;;;;;;;;;;5045857;28;20032;-75
2021/07/29 02:09:46;;;;;;;0.00;0.00;;;;;;;;;;5063460;28;20020;-75
2021/07/29 02:12:11;;;;;;;0.00;0.00;;;;;;;;;;5046044;28;20157;-75
2021/07/29 02:14:36;;;;;;;0.00;0.00;;;;;;;;;;5063182;28;20103;-74
2021/07/29 02:17:02;;;;;;;0.00;0.00;;;;;;;;;;5045670;28;20027;-74
2021/07/29 02:19:27;;;;;;;0.00;0.00;;;;;;;;;;5045410;28;20447;-74
2021/07/29 02:21:52;;;;;;;0.00;0.00;;;;;;;;;;5054816;28;20036;-74
2021/07/29 02:24:17;;;;;;;0.00;0.00;;;;;;;;;;5059788;28;20104;-74
2021/07/29 02:26:45;;;;;;;0.00;0.00;;;;;;;;;;5047017;28;20024;-74
2021/07/29 02:29:10;;;;;;;0.00;0.00;;;;;;;;;;5045301;28;20469;-74
2021/07/29 02:31:36;;;;;;;0.00;0.00;;;;;;;;;;5046808;28;20116;-74
2021/07/29 02:34:01;;;;;;;0.00;0.00;;;;;;;;;;5048282;28;20028;-73
2021/07/29 02:36:26;;;;;;;0.00;0.00;;;;;;;;;;5040775;28;20369;-74
2021/07/29 02:38:51;;;;;;;0.00;0.00;;;;;;;;;;5061621;28;20256;-74
2021/07/29 02:41:18;;;;;;;0.00;0.00;;;;;;;;;;5047632;28;20267;-74
2021/07/29 02:43:44;;;;;;;0.00;0.00;;;;;;;;;;5068287;28;20024;-74
2021/07/29 02:46:09;;;;;;;0.00;0.00;;;;;;;;;;5064648;28;20068;-73
2021/07/29 02:48:34;;;;;;;0.00;0.00;;;;;;;;;;5066328;28;20262;-74
2021/07/29 02:50:59;;;;;;;0.00;0.00;;;;;;;;;;5050035;28;20385;-74
2021/07/29 02:53:25;;;;;;;0.00;0.00;;;;;;;;;;5065668;28;20251;-74
2021/07/29 02:55:54;;;;;;;0.00;0.00;;;;;;;;;;5062696;28;20099;-74
2021/07/29 02:58:19;;;;;;;0.00;0.00;;;;;;;;;;5044281;28;20020;-74
2021/07/29 03:00:44;;;;;;;0.00;0.00;;;;;;;;;;5062907;28;20031;-74
2021/07/29 03:03:10;;;;;;;0.00;0.00;;;;;;;;;;5062827;28;20052;-74
2021/07/29 03:05:35;;;;;;;0.00;0.00;;;;;;;;;;5056470;28;20357;-75
2021/07/29 03:08:01;;;;;;;0.00;0.00;;;;;;;;;;5047137;28;20070;-74
2021/07/29 03:10:26;;;;;;;0.00;0.00;;;;;;;;;;5059659;28;20266;-75
2021/07/29 03:12:52;;;;;;;0.00;0.00;;;;;;;;;;5057457;28;20017;-75
2021/07/29 03:15:17;;;;;;;0.00;0.00;;;;;;;;;;5061298;28;20031;-75
2021/07/29 03:17:42;;;;;;;0.00;0.00;;;;;;;;;;5039200;28;20271;-75
2021/07/29 03:20:07;;;;;;;0.00;0.00;;;;;;;;;;5043831;28;20263;-75
2021/07/29 03:22:33;;;;;;;0.00;0.00;;;;;;;;;;5045177;28;20023;-74
2021/07/29 03:24:58;;;;;;;0.00;0.00;;;;;;;;;;5055268;28;20100;-74
2021/07/29 03:27:23;;;;;;;0.00;0.00;;;;;;;;;;5043575;28;20267;-75
2021/07/29 03:29:48;;;;;;;0.00;0.00;;;;;;;;;;5045055;28;20113;-74
2021/07/29 03:32:13;;;;;;;0.00;0.00;;;;;;;;;;5062266;28;20263;-73
2021/07/29 03:34:38;;;;;;;0.00;0.00;;;;;;;;;;5043654;28;20290;-74
2021/07/29 03:37:04;;;;;;;0.00;0.00;;;;;;;;;;5046783;28;20647;-73
2021/07/29 03:39:29;;;;;;;0.00;0.00;;;;;;;;;;5049308;28;20271;-74
2021/07/29 03:41:55;;;;;;;0.00;0.00;;;;;;;;;;5050040;28;20012;-74
2021/07/29 03:44:21;;;;;;;0.00;0.00;;;;;;;;;;5048469;28;20071;-74
2021/07/29 03:46:46;;;;;;;0.00;0.00;;;;;;;;;;5063367;28;20493;-75
2021/07/29 03:49:11;;;;;;;0.10;0.10;;;;;;;;;;5068744;28;20027;-75
2021/07/29 03:51:36;;;;;;;0.00;0.00;;;;;;;;;;5062908;28;20013;-74
2021/07/29 03:54:02;;;;;;;0.00;0.00;;;;;;;;;;5064825;28;20032;-74
2021/07/29 03:56:27;;;;;;;0.00;0.00;;;;;;;;;;5066971;28;20288;-73
2021/07/29 03:58:52;;;;;;;0.00;0.00;;;;;;;;;;5047367;28;20108;-73
2021/07/29 04:01:18;;;;;;;0.00;0.00;;;;;;;;;;5051643;28;20267;-70
2021/07/29 04:03:43;;;;;;;0.00;0.00;;;;;;;;;;5047410;28;20258;-76
2021/07/29 04:06:08;;;;;;;0.10;0.10;;;;;;;;;;5047592;28;20020;-76
2021/07/29 04:08:34;;;;;;;0.00;0.00;;;;;;;;;;5065137;28;20267;-71
2021/07/29 04:10:59;;;;;;;0.00;0.00;;;;;;;;;;5048641;28;20027;-71
2021/07/29 04:13:24;;;;;;;0.10;0.10;;;;;;;;;;5046550;28;20035;-71
2021/07/29 04:16:02;;;;;;;0.10;0.10;;;;;;;;;;5050133;28;20043;-72
2021/07/29 04:18:31;;;;;;;0.00;0.00;;;;;;;;;;5061541;28;20017;-73
2021/07/29 04:20:57;;;;;;;0.00;0.00;;;;;;;;;;5063114;28;20017;-72
2021/07/29 04:23:22;;;;;;;0.00;0.00;;;;;;;;;;5064144;28;20117;-72
2021/07/29 04:25:47;;;;;;;0.00;0.00;;;;;;;;;;5044439;28;20020;-72
2021/07/29 04:28:12;;;;;;;0.00;0.00;;;;;;;;;;5062831;28;20025;-71
2021/07/29 04:30:37;;;;;;;0.00;0.00;;;;;;;;;;5066596;28;20380;-72
2021/07/29 04:33:06;;;;;;;0.10;0.10;;;;;;;;;;5044721;28;20267;-72
2021/07/29 04:35:31;;;;;;;0.00;0.00;;;;;;;;;;5048553;28;20037;-71
2021/07/29 04:37:56;;;;;;;0.00;0.00;;;;;;;;;;5062842;28;20017;-71
2021/07/29 04:40:22;;;;;;;0.00;0.00;;;;;;;;;;5064727;28;20263;-71
2021/07/29 04:42:47;;;;;;;0.00;0.00;;;;;;;;;;5064144;28;20275;-71
2021/07/29 04:45:12;;;;;;;0.00;0.00;;;;;;;;;;5045475;28;20094;-71
2021/07/29 04:47:37;;;;;;;0.00;0.00;;;;;;;;;;5045479;28;20269;-71
2021/07/29 04:50:02;;;;;;;0.00;0.00;;;;;;;;;;5045568;28;20028;-71
2021/07/29 04:52:28;;;;;;;0.00;0.00;;;;;;;;;;5062576;28;20267;-71
2021/07/29 04:54:53;;;;;;;0.00;0.00;;;;;;;;;;5060713;28;20383;-72
2021/07/29 04:57:18;;;;;;;0.00;0.00;;;;;;;;;;5044423;28;20262;-71
2021/07/29 04:59:43;;;;;;;0.00;0.00;;;;;;;;;;5045445;28;20263;-71
2021/07/29 05:02:08;;;;;;;0.00;0.00;;;;;;;;;;5063997;28;20298;-71
2021/07/29 05:04:34;;;;;;;0.00;0.00;;;;;;;;;;5063072;28;20273;-71
2021/07/29 05:06:59;;;;;;;0.00;0.00;;;;;;;;;;5065535;28;20726;-72
2021/07/29 05:09:24;;;;;;;0.00;0.00;;;;;;;;;;5065272;28;20434;-73
2021/07/29 05:11:49;;;;;;;0.00;0.00;;;;;;;;;;5066178;28;20380;-72
2021/07/29 05:14:14;;;;;;;0.00;0.00;;;;;;;;;;5046368;28;20086;-76
2021/07/29 05:16:40;;;;;;;0.00;0.00;;;;;;;;;;5064709;28;20317;-76
2021/07/29 05:19:05;;;;;;;0.00;0.00;;;;;;;;;;5067659;28;20017;-76
2021/07/29 05:21:30;;;;;;;0.00;0.00;;;;;;;;;;5065902;28;20290;-77
2021/07/29 05:23:56;;;;;;;0.00;0.00;;;;;;;;;;5048029;28;20279;-77
2021/07/29 05:26:21;;;;;;;0.00;0.00;;;;;;;;;;5065710;28;20074;-76
2021/07/29 05:28:46;;;;;;;0.00;0.00;;;;;;;;;;5048292;28;20028;-76
2021/07/29 05:31:11;;;;;;;0.00;0.00;;;;;;;;;;5063950;28;20021;-76
2021/07/29 05:33:37;;;;;;;0.00;0.00;;;;;;;;;;5062636;28;20512;-76
2021/07/29 05:36:02;;;;;;;0.00;0.00;;;;;;;;;;5050234;28;20397;-76
2021/07/29 05:38:28;;;;;;;0.00;0.00;;;;;;;;;;5064498;28;20013;-76
2021/07/29 05:40:58;;;;;;;0.00;0.00;;;;;;;;;;5061872;28;20036;-77
2021/07/29 05:43:23;;;;;;;0.00;0.00;;;;;;;;;;5065079;28;20267;-76
2021/07/29 05:45:48;;;;;;;0.00;0.00;;;;;;;;;;5064712;28;20048;-76
2021/07/29 05:48:14;;;;;;;0.00;0.00;;;;;;;;;;5046157;28;20247;-76
2021/07/29 05:50:39;;;;;;;0.00;0.00;;;;;;;;;;5067512;28;20286;-76
2021/07/29 05:53:04;;;;;;;0.00;0.00;;;;;;;;;;5042418;28;20033;-77
2021/07/29 05:55:29;;;;;;;0.00;0.00;;;;;;;;;;5050662;28;20052;-76
2021/07/29 05:57:54;;;;;;;0.00;0.00;;;;;;;;;;5043854;28;20104;-77
2021/07/29 06:00:19;;;;;;;0.00;0.00;;;;;;;;;;5056585;28;20021;-77
2021/07/29 06:02:45;;;;;;;0.00;0.00;;;;;;;;;;5078806;28;20072;-78
2021/07/29 06:05:10;;;;;;;0.00;0.00;;;;;;;;;;5055234;28;20348;-77
2021/07/29 06:07:35;;;;;;;0.00;0.00;;;;;;;;;;5046838;28;20756;-77
2021/07/29 06:10:00;;;;;;;0.00;0.00;;;;;;;;;;5046809;28;20271;-77
2021/07/29 06:12:27;;;;;;;0.00;0.00;;;;;;;;;;5065891;28;20287;-77
2021/07/29 06:14:53;;;;;;;0.00;0.00;;;;;;;;;;5046485;28;20040;-77
2021/07/29 06:17:22;;;;;;;0.00;0.00;;;;;;;;;;5063228;28;20020;-76
2021/07/29 06:19:47;;;;;;;0.00;0.00;;;;;;;;;;5047750;28;20115;-76
2021/07/29 06:22:12;;;;;;;0.00;0.00;;;;;;;;;;5063330;28;20453;-76
2021/07/29 06:24:38;;;;;;;0.00;0.00;;;;;;;;;;5066423;28;20074;-77
2021/07/29 06:27:03;;;;;;;0.00;0.00;;;;;;;;;;5062217;28;20270;-77
2021/07/29 06:29:28;;;;;;;0.00;0.00;;;;;;;;;;5065998;28;20040;-75
2021/07/29 06:31:53;;;;;;;0.00;0.00;;;;;;;;;;5044232;28;20031;-75
2021/07/29 06:34:19;;;;;;;0.00;0.00;;;;;;;;;;5062079;28;20028;-75
2021/07/29 06:36:44;;;;;;;0.03;0.03;;;;;;;;;;5060742;28;20021;-73
2021/07/29 06:39:09;;;;;;;0.00;0.00;;;;;;;;;;5060904;28;20110;-73
2021/07/29 06:41:34;;;;;;;0.00;0.00;;;;;;;;;;5045304;28;20377;-73
2021/07/29 06:44:00;;;;;;;0.00;0.00;;;;;;;;;;5044644;28;20260;-72
2021/07/29 06:46:25;;;;;;;0.00;0.00;;;;;;;;;;5057704;28;20043;-73
2021/07/29 06:48:50;;;;;;;0.00;0.00;;;;;;;;;;5044741;28;20025;-73
2021/07/29 06:51:15;;;;;;;0.00;0.00;;;;;;;;;;5041533;28;20066;-74
2021/07/29 06:53:40;;;;;;;0.00;0.00;;;;;;;;;;5059709;28;20033;-74
2021/07/29 06:56:06;;;;;;;0.00;0.00;;;;;;;;;;5045499;28;20287;-72
2021/07/29 06:58:31;;;;;;;0.00;0.00;;;;;;;;;;5040990;28;20031;-73
2021/07/29 07:01:00;;;;;;;0.00;0.00;;;;;;;;;;5045804;28;20108;-72
2021/07/29 07:03:26;;;;;;;0.00;0.00;;;;;;;;;;5059000;28;20283;-73
2021/07/29 07:05:51;;;;;;;0.00;0.00;;;;;;;;;;5060569;28;20052;-72
2021/07/29 07:08:16;;;;;;;0.00;0.00;;;;;;;;;;5046029;28;20055;-73
2021/07/29 07:10:41;;;;;;;0.00;0.00;;;;;;;;;;5045224;28;20539;-73
2021/07/29 07:13:07;;;;;;;0.00;0.00;;;;;;;;;;5059365;28;20044;-74
2021/07/29 07:15:32;;;;;;;0.00;0.00;;;;;;;;;;5043339;28;20032;-72
2021/07/29 07:17:57;;;;;;;0.00;0.00;;;;;;;;;;5043445;28;20612;-72
2021/07/29 07:20:25;;;;;;;0.00;0.00;;;;;;;;;;5045409;28;20040;-72
2021/07/29 07:22:51;;;;;;;0.00;0.00;;;;;;;;;;5038973;28;20021;-74
2021/07/29 07:25:16;;;;;;;0.00;0.00;;;;;;;;;;5041716;28;20035;-74
2021/07/29 07:27:42;;;;;;;0.00;0.00;;;;;;;;;;5055782;28;20058;-74
2021/07/29 07:30:07;;;;;;;0.00;0.00;;;;;;;;;;5044602;28;20044;-75
2021/07/29 07:32:32;;;;;;;0.00;0.00;;;;;;;;;;5044852;28;20283;-75
2021/07/29 07:34:57;;;;;;;0.00;0.00;;;;;;;;;;5035545;28;20474;-75
2021/07/29 07:37:23;;;;;;;0.00;0.00;;;;;;;;;;5041167;28;20031;-75
2021/07/29 07:39:48;;;;;;;0.00;0.00;;;;;;;;;;5040624;28;20759;-75
2021/07/29 07:42:13;;;;;;;0.00;0.00;;;;;;;;;;5062666;28;20274;-76
2021/07/29 07:44:39;;;;;;;0.00;0.00;;;;;;;;;;5045606;28;20321;-75
2021/07/29 07:47:04;;;;;;;0.00;0.00;;;;;;;;;;5042876;28;20045;-76
2021/07/29 07:49:29;;;;;;;0.00;0.00;;;;;;;;;;5046084;28;20678;-77
2021/07/29 07:51:54;;;;;;;0.00;0.00;;;;;;;;;;5056591;28;20404;-76
2021/07/29 07:54:19;;;;;;;0.00;0.00;;;;;;;;;;5061503;28;20304;-76
2021/07/29 07:56:45;;;;;;;0.00;0.00;;;;;;;;;;5062528;28;20024;-75
2021/07/29 07:59:10;;;;;;;0.00;0.00;;;;;;;;;;5056948;28;20276;-77
2021/07/29 08:01:41;;;;;;;0.00;0.00;;;;;;;;;;5061738;28;20267;-77
2021/07/29 08:04:06;;;;;;;0.00;0.00;;;;;;;;;;5059869;28;20018;-76
2021/07/29 08:06:32;;;;;;;0.00;0.00;;;;;;;;;;5063233;28;20030;-77
2021/07/29 08:08:57;;;;;;;0.00;0.00;;;;;;;;;;5065844;28;20047;-78
2021/07/29 08:11:22;;;;;;;0.00;0.00;;;;;;;;;;5041918;28;20461;-76
2021/07/29 08:13:47;;;;;;;0.00;0.00;;;;;;;;;;5046194;28;20481;-75
2021/07/29 08:16:12;;;;;;;0.00;0.00;;;;;;;;;;5062891;28;20101;-73
2021/07/29 08:18:38;;;;;;;0.00;0.00;;;;;;;;;;5061280;28;20099;-74
2021/07/29 08:21:11;;;;;;;0.00;0.00;;;;;;;;;;5061184;28;20025;-74
2021/07/29 08:23:37;;;;;;;0.00;0.00;;;;;;;;;;5044454;28;20017;-73
2021/07/29 08:26:02;;;;;;;0.00;0.00;;;;;;;;;;5065130;28;20108;-72
2021/07/29 08:28:27;;;;;;;0.00;0.00;;;;;;;;;;5068354;28;21173;-73
2021/07/29 08:30:52;;;;;;;0.00;0.00;;;;;;;;;;5041644;28;20025;-72
2021/07/29 08:33:18;;;;;;;0.00;0.00;;;;;;;;;;5049832;28;20029;-73
2021/07/29 08:35:43;;;;;;;0.00;0.00;;;;;;;;;;5062958;28;20025;-72
2021/07/29 08:38:08;;;;;;;0.00;0.00;;;;;;;;;;5047828;28;20028;-73
2021/07/29 08:40:34;;;;;;;0.00;0.00;;;;;;;;;;5069508;28;20025;-73
2021/07/29 08:42:59;;;;;;;0.00;0.00;;;;;;;;;;5046379;28;20702;-74
2021/07/29 08:45:24;;;;;;;0.00;0.00;;;;;;;;;;5047352;28;20033;-72
2021/07/29 08:47:52;;;;;;;0.00;0.00;;;;;;;;;;5046061;28;20107;-72
2021/07/29 08:50:17;;;;;;;0.00;0.00;;;;;;;;;;5047046;28;20375;-69
2021/07/29 08:52:42;;;;;;;0.00;0.00;;;;;;;;;;5043943;28;20119;-68
2021/07/29 08:55:07;;;;;;;0.00;0.00;;;;;;;;;;5045424;28;20279;-68
2021/07/29 08:57:33;;;;;;;0.00;0.00;;;;;;;;;;5065007;28;20078;-67
2021/07/29 09:00:16;;;;;;;0.00;0.00;;;;;;;;;;5064369;28;20025;-66
2021/07/29 09:02:41;;;;;;;0.00;0.00;;;;;;;;;;5045376;28;20086;-62
2021/07/29 09:05:11;;;;;;;0.00;0.00;;;;;;;;;;5067721;28;20028;-62
2021/07/29 09:07:36;;;;;;;0.00;0.00;;;;;;;;;;5064124;28;20101;-62
2021/07/29 09:10:03;;;;;;;0.00;0.00;;;;;;;;;;5062971;28;20489;-66
2021/07/29 09:12:29;;;;;;;0.00;0.00;;;;;;;;;;5060594;28;20267;-66
2021/07/29 09:14:54;;;;;;;0.00;0.00;;;;;;;;;;5059418;28;20013;-66
2021/07/29 09:17:19;;;;;;;0.00;0.00;;;;;;;;;;5061681;28;20497;-66
2021/07/29 09:19:48;;;;;;;0.00;0.00;;;;;;;;;;5061466;28;20036;-66
2021/07/29 09:22:14;;;;;;;0.00;0.00;;;;;;;;;;5064572;28;20064;-66
2021/07/29 09:25:02;;;;;;;0.00;0.00;;;;;;;;;;5059498;28;20110;-66
2021/07/29 09:27:28;;;;;;;0.00;0.00;;;;;;;;;;5060915;28;20021;-66
2021/07/29 09:29:55;;;;;;;0.00;0.00;;;;;;;;;;5061067;28;20042;-66
2021/07/29 09:32:22;;;;;;;0.00;0.00;;;;;;;;;;5046156;28;20496;-66
2021/07/29 09:34:51;;;;;;;0.00;0.00;;;;;;;;;;5060041;28;20098;-66
2021/07/29 09:37:17;;;;;;;0.00;0.00;;;;;;;;;;5060665;28;20008;-66
2021/07/29 09:39:42;;;;;;;0.00;0.00;;;;;;;;;;5044745;28;20020;-63
2021/07/29 09:42:21;;;;;;;0.00;0.00;;;;;;;;;;5058079;28;20094;-63
2021/07/29 09:44:47;;;;;;;0.00;0.00;;;;;;;;;;5036997;28;20723;-64
2021/07/29 09:47:12;;;;;;;0.00;0.00;;;;;;;;;;5056703;28;20402;-63
2021/07/29 09:49:38;;;;;;;0.00;0.00;;;;;;;;;;5041516;28;20028;-64
2021/07/29 09:52:03;;;;;;;0.00;0.00;;;;;;;;;;5059089;28;20028;-64
2021/07/29 09:54:29;;;;;;;0.00;0.00;;;;;;;;;;5057966;28;20029;-64
2021/07/29 09:56:54;;;;;;;0.00;0.00;;;;;;;;;;5051873;28;20102;-64
2021/07/29 09:59:19;;;;;;;0.00;0.00;;;;;;;;;;5038570;28;20765;-66
2021/07/29 10:01:44;;;;;;;0.00;0.00;;;;;;;;;;5058997;28;20013;-66
2021/07/29 10:04:10;;;;;;;0.00;0.00;;;;;;;;;;5060254;28;20262;-65
2021/07/29 10:06:35;;;;;;;0.00;0.00;;;;;;;;;;5060840;28;20820;-63
2021/07/29 10:09:02;;;;;;;0.00;0.00;;;;;;;;;;5042713;28;20024;-65
2021/07/29 10:11:28;;;;;;;0.00;0.00;;;;;;;;;;5060242;28;20104;-65
2021/07/29 10:13:53;;;;;;;0.00;0.00;;;;;;;;;;5038078;28;20870;-64
2021/07/29 10:16:39;;;;;;;0.00;0.00;;;;;;;;;;5038932;28;20020;-65
2021/07/29 10:19:05;;;;;;;0.00;0.00;;;;;;;;;;5063454;28;20024;-65
2021/07/29 10:21:30;;;;;;;0.00;0.00;;;;;;;;;;5054068;28;20025;-65
2021/07/29 10:23:56;;;;;;;0.00;0.00;;;;;;;;;;5061816;28;20377;-65
2021/07/29 10:26:22;;;;;;;0.00;0.00;;;;;;;;;;5063800;28;20499;-64
2021/07/29 10:28:47;;;;;;;0.00;0.00;;;;;;;;;;5062491;28;20034;-64
2021/07/29 10:31:14;;;;;;;0.00;0.00;;;;;;;;;;5046216;28;20021;-65
2021/07/29 10:33:40;;;;;;;0.00;0.00;;;;;;;;;;5063208;28;20033;-65
2021/07/29 10:36:05;;;;;;;0.00;0.00;;;;;;;;;;5056143;28;20032;-65
2021/07/29 10:38:39;;;;;;;0.00;0.00;;;;;;;;;;5043965;28;20100;-65
2021/07/29 10:41:23;;;;;;;0.00;0.00;;;;;;;;;;5057389;28;20094;-66
2021/07/29 10:43:48;;;;;;;0.00;0.00;;;;;;;;;;5058467;28;20063;-66
2021/07/29 10:46:13;;;;;;;0.00;0.00;;;;;;;;;;5060279;28;20473;-65
2021/07/29 10:48:38;;;;;;;0.00;0.00;;;;;;;;;;5043985;28;20025;-64
2021/07/29 10:51:09;;;;;;;0.00;0.00;;;;;;;;;;5058811;28;20259;-65
2021/07/29 10:53:34;;;;;;;0.00;0.00;;;;;;;;;;5060434;28;20303;-65
2021/07/29 10:55:59;;;;;;;0.00;0.00;;;;;;;;;;5060247;28;20067;-65
2021/07/29 10:58:24;;;;;;;0.00;0.00;;;;;;;;;;5058921;28;20473;-65
2021/07/29 11:00:53;;;;;;;0.00;0.00;;;;;;;;;;5043886;28;20025;-66
2021/07/29 11:03:19;;;;;;;0.00;0.00;;;;;;;;;;5057210;28;20332;-65
2021/07/29 11:05:52;;;;;;;0.00;0.00;;;;;;;;;;5060180;28;20081;-65
2021/07/29 11:08:24;;;;;;;0.00;0.00;;;;;;;;;;5054763;28;20033;-65
2021/07/29 11:10:49;;;;;;;0.00;0.00;;;;;;;;;;5039712;28;20032;-66
2021/07/29 11:13:15;;;;;;;0.00;0.00;;;;;;;;;;5060509;28;20021;-66
2021/07/29 11:15:40;;;;;;;0.00;0.00;;;;;;;;;;5044537;28;20028;-66
2021/07/29 11:18:09;;;;;;;0.00;0.00;;;;;;;;;;5043076;28;20025;-67
2021/07/29 11:20:37;;;;;;;0.00;0.00;;;;;;;;;;5063102;28;20066;-67
2021/07/29 11:23:02;;;;;;;0.00;0.00;;;;;;;;;;5061735;28;20044;-67
2021/07/29 11:25:28;;;;;;;0.00;0.00;;;;;;;;;;5058346;28;20025;-66
2021/07/29 11:27:53;;;;;;;0.00;0.00;;;;;;;;;;5058913;28;20017;-66
2021/07/29 11:30:18;;;;;;;0.00;0.00;;;;;;;;;;5060132;28;20029;-66
2021/07/29 11:32:45;;;;;;;0.00;0.00;;;;;;;;;;5060686;28;20024;-67
2021/07/29 11:35:11;;;;;;;0.00;0.00;;;;;;;;;;5042140;28;20310;-66
2021/07/29 11:37:37;;;;;;;0.00;0.00;;;;;;;;;;5040289;28;20045;-66
2021/07/29 11:40:04;;;;;;;0.00;0.00;;;;;;;;;;5058989;28;20093;-66
2021/07/29 11:42:33;;;;;;;0.00;0.00;;;;;;;;;;5062514;28;20027;-66
2021/07/29 11:44:58;;;;;;;0.00;0.00;;;;;;;;;;5055585;28;20027;-67
2021/07/29 11:47:25;;;;;;;0.00;0.00;;;;;;;;;;5056961;28;20451;-68
2021/07/29 11:49:50;;;;;;;0.00;0.00;;;;;;;;;;5058765;28;20021;-68
2021/07/29 11:52:16;;;;;;;0.00;0.00;;;;;;;;;;5062826;28;20023;-68
2021/07/29 11:54:41;;;;;;;0.00;0.00;;;;;;;;;;5057634;28;20405;-68
2021/07/29 11:57:07;;;;;;;0.00;0.00;;;;;;;;;;5058942;28;20393;-68
2021/07/29 11:59:36;;;;;;;0.00;0.00;;;;;;;;;;5046362;28;20290;-68
2021/07/29 12:02:02;;;;;;;0.00;0.00;;;;;;;;;;5064029;28;20040;-68
2021/07/29 12:04:28;;;;;;;0.00;0.00;;;;;;;;;;5063981;28;20088;-68
2021/07/29 12:06:54;;;;;;;0.00;0.00;;;;;;;;;;5064069;28;20040;-68
2021/07/29 12:09:20;;;;;;;0.00;0.00;;;;;;;;;;5069129;28;20472;-68
2021/07/29 12:11:45;;;;;;;0.00;0.00;;;;;;;;;;5063682;28;20021;-68
2021/07/29 12:14:13;;;;;;;0.00;0.00;;;;;;;;;;5062677;28;20032;-68
2021/07/29 12:16:42;;;;;;;0.00;0.00;;;;;;;;;;5044342;28;20032;-68
2021/07/29 12:19:07;;;;;;;0.00;0.00;;;;;;;;;;5061869;28;20028;-68
2021/07/29 12:21:33;;;;;;;0.00;0.00;;;;;;;;;;5063641;28;20020;-69
2021/07/29 12:23:58;;;;;;;0.00;0.00;;;;;;;;;;5041214;28;20286;-68
2021/07/29 12:26:26;;;;;;;0.00;0.00;;;;;;;;;;5057805;28;20026;-68
2021/07/29 12:28:51;;;;;;;0.00;0.00;;;;;;;;;;5057838;28;20025;-69
2021/07/29 12:31:29;;;;;;;0.00;0.00;;;;;;;;;;5063410;28;20095;-68
2021/07/29 12:33:54;;;;;;;0.00;0.00;;;;;;;;;;5042227;28;20021;-69
2021/07/29 12:36:20;;;;;;;0.00;0.00;;;;;;;;;;5053749;28;20090;-68
2021/07/29 12:38:45;;;;;;;0.00;0.00;;;;;;;;;;5058302;28;20021;-68
2021/07/29 12:41:11;;;;;;;0.00;0.00;;;;;;;;;;5058527;28;20020;-68
2021/07/29 12:43:36;;;;;;;0.00;0.00;;;;;;;;;;5055286;28;20024;-69
2021/07/29 12:46:06;;;;;;;0.00;0.00;;;;;;;;;;5042149;28;21458;-68
2021/07/29 12:48:52;;;;;;;0.00;0.00;;;;;;;;;;5037320;28;20033;-70
2021/07/29 12:51:32;;;;;;;0.00;0.00;;;;;;;;;;5054624;28;20682;-69
2021/07/29 12:54:01;;;;;;;0.00;0.00;;;;;;;;;;5040828;28;20048;-68
2021/07/29 12:56:26;;;;;;;0.00;0.00;;;;;;;;;;5044395;28;20028;-68
2021/07/29 12:58:51;;;;;;;0.00;0.00;;;;;;;;;;5043065;28;20020;-69
2021/07/29 13:01:16;;;;;;;0.00;0.00;;;;;;;;;;5041969;28;20272;-69
2021/07/29 13:03:45;;;;;;;0.00;0.00;;;;;;;;;;5056960;28;20076;-68
2021/07/29 13:06:10;;;;;;;0.00;0.00;;;;;;;;;;5064229;28;20048;-68
2021/07/29 13:08:35;;;;;;;0.00;0.00;;;;;;;;;;5044530;28;20028;-69
2021/07/29 13:11:00;;;;;;;0.00;0.00;;;;;;;;;;5043637;28;20263;-68
2021/07/29 13:13:28;;;;;;;0.00;0.00;;;;;;;;;;5049334;28;20123;-68
2021/07/29 13:15:53;;;;;;;0.00;0.00;;;;;;;;;;5045334;28;20025;-69
2021/07/29 13:18:18;;;;;;;0.00;0.00;;;;;;;;;;5044934;28;20435;-68
2021/07/29 13:20:44;;;;;;;0.00;0.00;;;;;;;;;;5043162;28;20024;-69
2021/07/29 13:23:09;;;;;;;0.00;0.00;;;;;;;;;;5045832;28;20031;-69
2021/07/29 13:25:35;;;;;;;0.00;0.00;;;;;;;;;;5058693;28;20382;-69
2021/07/29 13:28:00;;;;;;;0.00;0.00;;;;;;;;;;5043938;28;20016;-69
2021/07/29 13:30:25;;;;;;;0.00;0.00;;;;;;;;;;5059715;28;20478;-68
2021/07/29 13:32:50;;;;;;;0.00;0.00;;;;;;;;;;5045627;28;20027;-68
2021/07/29 13:35:15;;;;;;;0.00;0.00;;;;;;;;;;5062955;28;20107;-69
2021/07/29 13:37:41;;;;;;;0.00;0.00;;;;;;;;;;5060178;28;20267;-69
2021/07/29 13:40:06;;;;;;;0.00;0.00;;;;;;;;;;5062757;28;20270;-69
2021/07/29 13:42:31;;;;;;;0.00;0.00;;;;;;;;;;5044933;28;20282;-69
2021/07/29 13:45:42;;;;;;;0.00;0.00;;;;;;;;;;5043291;28;20451;-69
2021/07/29 13:47:49;;;;;;;0.00;0.00;;;;;;;;;;5055829;28;20102;-68
2021/07/29 13:50:14;;;;;;;0.00;0.00;;;;;;;;;;5046796;28;20026;-68
2021/07/29 13:52:40;;;;;;;0.00;0.00;;;;;;;;;;5060268;28;20024;-68
2021/07/29 13:55:05;;;;;;;0.00;0.00;;;;;;;;;;5042548;28;20112;-69
2021/07/29 13:57:30;;;;;;;0.00;0.00;;;;;;;;;;5044333;28;20032;-68
2021/07/29 13:59:56;;;;;;;0.00;0.00;;;;;;;;;;5044220;28;20012;-69
2021/07/29 14:02:22;;;;;;;0.00;0.00;;;;;;;;;;5061082;28;20021;-68
2021/07/29 14:04:54;;;;;;;0.00;0.00;;;;;;;;;;5042808;28;20055;-70
2021/07/29 14:07:19;;;;;;;0.00;0.00;;;;;;;;;;5040848;28;20056;-68
2021/07/29 14:09:46;;;;;;;0.00;0.00;;;;;;;;;;5060529;28;20035;-68
2021/07/29 14:12:11;;;;;;;0.00;0.00;;;;;;;;;;5045208;28;20024;-68
2021/07/29 14:14:36;;;;;;;0.00;0.00;;;;;;;;;;5046297;28;20032;-68
2021/07/29 14:17:11;;;;;;;0.00;0.00;;;;;;;;;;5055541;28;20281;-68
2021/07/29 14:19:48;;;;;;;0.00;0.00;;;;;;;;;;5057595;28;20347;-68
2021/07/29 14:24:40;;;;;;;0.00;0.00;;;;;;;;;;5066643;28;20031;-69
2021/07/29 14:27:06;;;;;;;0.00;0.00;;;;;;;;;;5043547;28;20050;-69
2021/07/29 14:29:31;;;;;;;0.00;0.00;;;;;;;;;;5036746;28;20028;-70
2021/07/29 14:31:57;;;;;;;0.00;0.00;;;;;;;;;;5058435;28;20338;-67
2021/07/29 14:34:22;;;;;;;0.00;0.00;;;;;;;;;;5058883;28;20029;-66
2021/07/29 14:36:47;;;;;;;0.00;0.00;;;;;;;;;;5039962;28;20025;-67
2021/07/29 14:39:12;;;;;;;0.00;0.00;;;;;;;;;;5043780;28;20039;-70
2021/07/29 14:41:37;;;;;;;0.00;0.00;;;;;;;;;;5063945;28;20762;-69